Paulick — FGF3493 — position and weather

sailwx.info

Track history (hours):
 
Tides and Currents Weather Stations Pressure Air Temp Water Temp Dewpoint Dewpoint Depression Visibility Wind Speed Wind Dir Waves Ship Positions

Paulick

Last reported at 2017-Aug-17 09:36 UTC. Time now 2017-Sep-25 06:29 UTC.
Position N 48°45' W 002°51'.
Warning: this ship's position is 38 days out of date.

Length 10 m.

Type: Sailing vessel. MMSI: 227712460.

Date/timePositionNaut miles runAvg speedWind from/ knotsBaromVisibWave heightAir tempDewpointWater temp
2017-Aug-17 09:36N 48°45' W 002°51'1 6.7
2017-Aug-17 09:28N 48°45' W 002°53'7 0.4
2017-Aug-16 14:45N 48°50' W 002°60'0 0.2
2017-Aug-16 13:59N 48°50' W 002°60'  
2017-Aug-13 06:56N 48°37' W 004°40'3 6.8
2017-Aug-13 06:29N 48°36' W 004°44'3 6.8
2017-Aug-13 06:00N 48°33' W 004°47'3 6.8
2017-Aug-13 05:30N 48°30' W 004°49'3 5.1
2017-Aug-13 04:59N 48°28' W 004°46'1 0.1
2017-Aug-12 16:18N 48°28' W 004°45'0 1.2
2017-Aug-12 16:00N 48°28' W 004°46'2 4.2
2017-Aug-12 15:29N 48°27' W 004°49'2 3.7
2017-Aug-12 15:00N 48°26' W 004°50'3 3.1
2017-Aug-12 14:09N 48°23' W 004°49'1 4.4
2017-Aug-12 13:59N 48°23' W 004°49'3 5.0
2017-Aug-12 13:24N 48°20' W 004°48'2 3.8
2017-Aug-12 13:00N 48°18' W 004°48'2 3.5
2017-Aug-12 12:30N 48°18' W 004°45'3 5.9
2017-Aug-12 12:00N 48°19' W 004°41'3 6.7
2017-Aug-12 11:31N 48°20' W 004°36'4 7.5
2017-Aug-12 11:01N 48°21' W 004°31'2 3.7
2017-Aug-12 10:31N 48°23' W 004°29'0 0.0
2017-Aug-11 15:40N 48°23' W 004°29'0 0.0
2017-Aug-11 15:28N 48°23' W 004°29'0 0.7
2017-Aug-11 15:00N 48°22' W 004°29'2 4.3
2017-Aug-11 14:30N 48°21' W 004°32'5 4.6
2017-Aug-11 13:28N 48°17' W 004°35'0 0.0
2017-Aug-11 12:58N 48°17' W 004°35'0 0.0
2017-Aug-11 12:28N 48°17' W 004°35'0 0.0
2017-Aug-11 11:58N 48°17' W 004°35'0 0.0
2017-Aug-11 11:28N 48°17' W 004°35'0 0.0
2017-Aug-11 10:58N 48°17' W 004°35'0 0.0
2017-Aug-11 10:28N 48°17' W 004°35'0 0.1
2017-Aug-11 10:00N 48°17' W 004°35'2 4.2
2017-Aug-11 09:30N 48°17' W 004°38'3 5.6
2017-Aug-11 09:00N 48°14' W 004°38'3 5.1
2017-Aug-11 08:30N 48°12' W 004°36'3 4.5
2017-Aug-11 07:53N 48°10' W 004°33'2 5.7
2017-Aug-11 07:30N 48°12' W 004°31'2 3.6
2017-Aug-11 06:57N 48°13' W 004°30'0 0.0
2017-Aug-11 06:27N 48°13' W 004°30'0 0.0
2017-Aug-11 05:59N 48°13' W 004°30'0 0.0
2017-Aug-10 16:49N 48°13' W 004°30'0 0.5
2017-Aug-10 16:30N 48°14' W 004°30'2 3.3
2017-Aug-10 15:59N 48°12' W 004°31'0 0.0
2017-Aug-10 14:44N 48°12' W 004°31'0 0.0
2017-Aug-10 13:44N 48°12' W 004°31'0 0.0
2017-Aug-10 11:53N 48°12' W 004°31'3 4.5
2017-Aug-10 11:13N 48°10' W 004°34'1 5.4
2017-Aug-10 11:01N 48°10' W 004°35'3 5.5
2017-Aug-10 10:30N 48°13' W 004°37'3 5.2
2017-Aug-10 10:00N 48°15' W 004°38'2 4.5
2017-Aug-10 09:30N 48°17' W 004°37'1 2.1
2017-Aug-10 08:58N 48°17' W 004°35'0 0.0
2017-Aug-10 08:28N 48°17' W 004°35'0 0.0
2017-Aug-10 07:58N 48°17' W 004°35'0 0.0
2017-Aug-10 07:28N 48°17' W 004°35'0 0.0
2017-Aug-09 17:43N 48°17' W 004°35'0 0.0
2017-Aug-09 17:30N 48°17' W 004°35'0 0.0
2017-Aug-09 08:39N 48°17' W 004°35'0 0.0
2017-Aug-09 08:30N 48°17' W 004°35'0 0.0
2017-Aug-08 16:15N 48°17' W 004°35'0 0.0
2017-Aug-08 16:00N 48°17' W 004°35'2 3.6
2017-Aug-08 15:30N 48°18' W 004°37'3 5.5
2017-Aug-08 15:00N 48°20' W 004°40'1 2.3
2017-Aug-08 14:28N 48°21' W 004°42'0 0.0
2017-Aug-08 13:58N 48°21' W 004°42'0 0.0
2017-Aug-08 13:25N 48°21' W 004°42'0 0.0
2017-Aug-08 12:58N 48°21' W 004°42'0 0.0
2017-Aug-08 12:28N 48°21' W 004°42'0 0.0
2017-Aug-08 11:58N 48°21' W 004°42'0 0.0
2017-Aug-08 11:28N 48°21' W 004°42'0 0.0
2017-Aug-08 10:58N 48°21' W 004°42'1 1.6
2017-Aug-08 10:30N 48°20' W 004°41'2 4.0
2017-Aug-08 10:00N 48°19' W 004°38'3 6.4
2017-Aug-08 09:30N 48°21' W 004°34'3 6.9
2017-Aug-08 09:00N 48°22' W 004°29'1 1.0
2017-Aug-08 08:28N 48°23' W 004°29'0 0.0
2017-Aug-08 07:58N 48°23' W 004°29'0 0.0
2017-Aug-08 07:28N 48°23' W 004°29'0 0.0
2017-Aug-07 14:46N 48°23' W 004°29'0 0.2
2017-Aug-07 14:28N 48°23' W 004°29'1 1.4
2017-Aug-07 14:01N 48°22' W 004°29'2 4.5
2017-Aug-07 13:31N 48°21' W 004°33'3 5.9
2017-Aug-07 13:00N 48°19' W 004°36'2 4.7
2017-Aug-07 12:30N 48°20' W 004°40'3 6.4
2017-Aug-07 12:00N 48°19' W 004°44'4 6.0
2017-Aug-07 11:25N 48°18' W 004°49'3 6.3
2017-Aug-07 10:58N 48°18' W 004°54'5 5.1
2017-Aug-07 09:58N 48°20' W 005°00'  
Track history (hours):
 
Tides and Currents Weather Stations Pressure Air Temp Water Temp Dewpoint Dewpoint Depression Visibility Wind Speed Wind Dir Waves Ship Positions

Paulick

Last reported at 2017-Aug-17 09:36 UTC. Time now 2017-Sep-25 06:29 UTC.
Position N 48°45' W 002°51'.
Warning: this ship's position is 38 days out of date.

Length 10 m.

Type: Sailing vessel. MMSI: 227712460.

Date/timePositionNaut miles runAvg speedWind from/ knotsBaromVisibWave heightAir tempDewpointWater temp
2017-Aug-17 09:36N 48°45' W 002°51'1 6.7
2017-Aug-17 09:28N 48°45' W 002°53'7 0.4
2017-Aug-16 14:45N 48°50' W 002°60'0 0.2
2017-Aug-16 13:59N 48°50' W 002°60'  
2017-Aug-13 06:56N 48°37' W 004°40'3 6.8
2017-Aug-13 06:29N 48°36' W 004°44'3 6.8
2017-Aug-13 06:00N 48°33' W 004°47'3 6.8
2017-Aug-13 05:30N 48°30' W 004°49'3 5.1
2017-Aug-13 04:59N 48°28' W 004°46'1 0.1
2017-Aug-12 16:18N 48°28' W 004°45'0 1.2
2017-Aug-12 16:00N 48°28' W 004°46'2 4.2
2017-Aug-12 15:29N 48°27' W 004°49'2 3.7
2017-Aug-12 15:00N 48°26' W 004°50'3 3.1
2017-Aug-12 14:09N 48°23' W 004°49'1 4.4
2017-Aug-12 13:59N 48°23' W 004°49'3 5.0
2017-Aug-12 13:24N 48°20' W 004°48'2 3.8
2017-Aug-12 13:00N 48°18' W 004°48'2 3.5
2017-Aug-12 12:30N 48°18' W 004°45'3 5.9
2017-Aug-12 12:00N 48°19' W 004°41'3 6.7
2017-Aug-12 11:31N 48°20' W 004°36'4 7.5
2017-Aug-12 11:01N 48°21' W 004°31'2 3.7
2017-Aug-12 10:31N 48°23' W 004°29'0 0.0
2017-Aug-11 15:40N 48°23' W 004°29'0 0.0
2017-Aug-11 15:28N 48°23' W 004°29'0 0.7
2017-Aug-11 15:00N 48°22' W 004°29'2 4.3
2017-Aug-11 14:30N 48°21' W 004°32'5 4.6
2017-Aug-11 13:28N 48°17' W 004°35'0 0.0
2017-Aug-11 12:58N 48°17' W 004°35'0 0.0
2017-Aug-11 12:28N 48°17' W 004°35'0 0.0
2017-Aug-11 11:58N 48°17' W 004°35'0 0.0
2017-Aug-11 11:28N 48°17' W 004°35'0 0.0
2017-Aug-11 10:58N 48°17' W 004°35'0 0.0
2017-Aug-11 10:28N 48°17' W 004°35'0 0.1
2017-Aug-11 10:00N 48°17' W 004°35'2 4.2
2017-Aug-11 09:30N 48°17' W 004°38'3 5.6
2017-Aug-11 09:00N 48°14' W 004°38'3 5.1
2017-Aug-11 08:30N 48°12' W 004°36'3 4.5
2017-Aug-11 07:53N 48°10' W 004°33'2 5.7
2017-Aug-11 07:30N 48°12' W 004°31'2 3.6
2017-Aug-11 06:57N 48°13' W 004°30'0 0.0
2017-Aug-11 06:27N 48°13' W 004°30'0 0.0
2017-Aug-11 05:59N 48°13' W 004°30'0 0.0
2017-Aug-10 16:49N 48°13' W 004°30'0 0.5
2017-Aug-10 16:30N 48°14' W 004°30'2 3.3
2017-Aug-10 15:59N 48°12' W 004°31'0 0.0
2017-Aug-10 14:44N 48°12' W 004°31'0 0.0
2017-Aug-10 13:44N 48°12' W 004°31'0 0.0
2017-Aug-10 11:53N 48°12' W 004°31'3 4.5
2017-Aug-10 11:13N 48°10' W 004°34'1 5.4
2017-Aug-10 11:01N 48°10' W 004°35'3 5.5
2017-Aug-10 10:30N 48°13' W 004°37'3 5.2
2017-Aug-10 10:00N 48°15' W 004°38'2 4.5
2017-Aug-10 09:30N 48°17' W 004°37'1 2.1
2017-Aug-10 08:58N 48°17' W 004°35'0 0.0
2017-Aug-10 08:28N 48°17' W 004°35'0 0.0
2017-Aug-10 07:58N 48°17' W 004°35'0 0.0
2017-Aug-10 07:28N 48°17' W 004°35'0 0.0
2017-Aug-09 17:43N 48°17' W 004°35'0 0.0
2017-Aug-09 17:30N 48°17' W 004°35'0 0.0
2017-Aug-09 08:39N 48°17' W 004°35'0 0.0
2017-Aug-09 08:30N 48°17' W 004°35'0 0.0
2017-Aug-08 16:15N 48°17' W 004°35'0 0.0
2017-Aug-08 16:00N 48°17' W 004°35'2 3.6
2017-Aug-08 15:30N 48°18' W 004°37'3 5.5
2017-Aug-08 15:00N 48°20' W 004°40'1 2.3
2017-Aug-08 14:28N 48°21' W 004°42'0 0.0
2017-Aug-08 13:58N 48°21' W 004°42'0 0.0
2017-Aug-08 13:25N 48°21' W 004°42'0 0.0
2017-Aug-08 12:58N 48°21' W 004°42'0 0.0
2017-Aug-08 12:28N 48°21' W 004°42'0 0.0
2017-Aug-08 11:58N 48°21' W 004°42'0 0.0
2017-Aug-08 11:28N 48°21' W 004°42'0 0.0
2017-Aug-08 10:58N 48°21' W 004°42'1 1.6
2017-Aug-08 10:30N 48°20' W 004°41'2 4.0
2017-Aug-08 10:00N 48°19' W 004°38'3 6.4
2017-Aug-08 09:30N 48°21' W 004°34'3 6.9
2017-Aug-08 09:00N 48°22' W 004°29'1 1.0
2017-Aug-08 08:28N 48°23' W 004°29'0 0.0
2017-Aug-08 07:58N 48°23' W 004°29'0 0.0
2017-Aug-08 07:28N 48°23' W 004°29'0 0.0
2017-Aug-07 14:46N 48°23' W 004°29'0 0.2
2017-Aug-07 14:28N 48°23' W 004°29'1 1.4
2017-Aug-07 14:01N 48°22' W 004°29'2 4.5
2017-Aug-07 13:31N 48°21' W 004°33'3 5.9
2017-Aug-07 13:00N 48°19' W 004°36'2 4.7
2017-Aug-07 12:30N 48°20' W 004°40'3 6.4
2017-Aug-07 12:00N 48°19' W 004°44'4 6.0
2017-Aug-07 11:25N 48°18' W 004°49'3 6.3
2017-Aug-07 10:58N 48°18' W 004°54'5 5.1
2017-Aug-07 09:58N 48°20' W 005°00'  

Dump ship's entire track history